Time;durP1;ratioP1;P1;durP2;ratioP2;P2;SDS_P1;SDS_P2;PMS_P1;PMS_P2;Temp;Humidity;BMP_temperature;BMP_pressure;BME280_temperature;BME280_humidity;BME280_pressure;Samples;Min_cycle;Max_cycle;Signal;HPM_P1;HPM_P2
2021/03/16 00:00:12;;;;;;;25.38;4.05;;;7.90;80.20;;;;;;5093328;28;20028;-77
2021/03/16 00:02:38;;;;;;;23.80;4.47;;;7.90;79.80;;;;;;5094363;28;20377;-77
2021/03/16 00:05:05;;;;;;;29.52;4.03;;;8.00;79.20;;;;;;5094888;28;20032;-77
2021/03/16 00:07:30;;;;;;;24.17;3.78;;;8.10;78.90;;;;;;5094258;28;20026;-78
2021/03/16 00:09:56;;;;;;;27.60;4.40;;;7.90;79.30;;;;;;5094569;28;20028;-77
2021/03/16 00:12:22;;;;;;;24.38;3.80;;;8.00;78.90;;;;;;5092831;28;20059;-77
2021/03/16 00:14:47;;;;;;;23.48;3.50;;;8.10;78.40;;;;;;5093870;28;20036;-77
2021/03/16 00:17:13;;;;;;;33.22;4.40;;;8.00;78.70;;;;;;5094266;28;20457;-78
2021/03/16 00:19:38;;;;;;;32.10;4.47;;;8.10;78.50;;;;;;5093817;28;20040;-77
2021/03/16 00:22:04;;;;;;;26.67;4.55;;;8.00;78.40;;;;;;5093918;28;20052;-77
2021/03/16 00:24:30;;;;;;;34.50;4.55;;;8.00;78.30;;;;;;5094178;28;20377;-77
2021/03/16 00:26:55;;;;;;;24.13;3.63;;;8.10;78.30;;;;;;5094035;28;20025;-78
2021/03/16 00:29:21;;;;;;;30.45;4.07;;;8.00;78.40;;;;;;5094276;28;20039;-78
2021/03/16 00:31:46;;;;;;;34.85;4.70;;;8.00;78.60;;;;;;5093986;28;20035;-77
2021/03/16 00:34:12;;;;;;;30.35;4.65;;;8.00;78.40;;;;;;5094204;28;20063;-77
2021/03/16 00:36:37;;;;;;;33.95;4.90;;;8.00;78.30;;;;;;5094147;28;20115;-78
2021/03/16 00:39:04;;;;;;;30.30;4.03;;;8.10;78.00;;;;;;5093892;28;20031;-78
2021/03/16 00:41:30;;;;;;;23.23;3.85;;;8.10;78.00;;;;;;5093845;28;20024;-78
2021/03/16 00:43:55;;;;;;;23.02;3.83;;;8.10;77.90;;;;;;5092633;28;20024;-78
2021/03/16 00:46:21;;;;;;;26.63;4.25;;;8.10;78.00;;;;;;5094112;28;20024;-78
2021/03/16 00:48:46;;;;;;;27.27;4.10;;;8.00;78.00;;;;;;5094130;28;20377;-78
2021/03/16 00:51:12;;;;;;;25.38;3.30;;;8.00;78.10;;;;;;5093804;28;20034;-78
2021/03/16 00:53:37;;;;;;;32.88;4.15;;;8.00;78.40;;;;;;5092497;28;20038;-78
2021/03/16 00:56:03;;;;;;;37.72;4.43;;;8.00;78.50;;;;;;5093632;28;20495;-79
2021/03/16 00:58:29;;;;;;;24.15;3.80;;;8.00;78.60;;;;;;5094039;28;20028;-78
2021/03/16 01:00:55;;;;;;;18.55;3.75;;;8.00;78.30;;;;;;5093801;28;20161;-78
2021/03/16 01:03:21;;;;;;;25.92;3.60;;;8.00;78.00;;;;;;5093784;28;20055;-78
2021/03/16 01:05:47;;;;;;;24.77;3.75;;;8.00;78.00;;;;;;5092922;28;20377;-78
2021/03/16 01:08:13;;;;;;;26.98;3.45;;;8.00;78.10;;;;;;5093349;28;20031;-78
2021/03/16 01:10:38;;;;;;;33.83;4.53;;;8.10;78.00;;;;;;5093269;28;20032;-78
2021/03/16 01:13:04;;;;;;;27.17;3.83;;;8.10;77.40;;;;;;5092374;28;20119;-78
2021/03/16 01:15:30;;;;;;;30.35;4.45;;;8.00;77.40;;;;;;5093465;28;20036;-78
2021/03/16 01:17:55;;;;;;;30.80;3.50;;;8.10;77.30;;;;;;5092380;28;20025;-78
2021/03/16 01:20:22;;;;;;;21.30;3.35;;;8.10;78.10;;;;;;5093168;28;20032;-78
2021/03/16 01:22:47;;;;;;;27.70;4.13;;;7.90;77.80;;;;;;5093633;28;20020;-78
2021/03/16 01:25:13;;;;;;;32.85;3.92;;;7.90;78.00;;;;;;5093115;28;20385;-78
2021/03/16 01:27:39;;;;;;;21.90;3.50;;;7.90;77.50;;;;;;5092235;28;20081;-78
2021/03/16 01:30:05;;;;;;;22.35;3.13;;;7.90;77.10;;;;;;5092309;28;20031;-78
2021/03/16 01:32:31;;;;;;;20.67;3.22;;;8.00;76.70;;;;;;5093400;28;20101;-78
2021/03/16 01:34:59;;;;;;;21.10;3.25;;;8.00;76.90;;;;;;5098956;28;20465;-78
2021/03/16 01:37:25;;;;;;;22.63;3.28;;;8.00;76.70;;;;;;5096958;28;20431;-78
2021/03/16 01:39:51;;;;;;;26.77;3.70;;;7.90;77.00;;;;;;5095704;28;20032;-78
2021/03/16 01:42:16;;;;;;;21.83;3.20;;;7.80;77.40;;;;;;5097092;28;20028;-78
2021/03/16 01:44:44;;;;;;;24.08;3.67;;;7.90;76.90;;;;;;5096789;28;20507;-78
2021/03/16 01:47:15;;;;;;;20.13;3.38;;;7.90;77.30;;;;;;5095992;28;20039;-78
2021/03/16 01:49:41;;;;;;;25.00;3.63;;;7.90;76.50;;;;;;5095703;28;20461;-78
2021/03/16 01:52:07;;;;;;;26.70;3.65;;;7.90;76.40;;;;;;5096900;28;20059;-78
2021/03/16 01:54:33;;;;;;;23.02;3.03;;;8.00;75.70;;;;;;5078781;28;20111;-78
2021/03/16 01:57:00;;;;;;;20.65;3.75;;;8.00;75.70;;;;;;5096865;28;20051;-78
2021/03/16 01:59:26;;;;;;;23.65;3.80;;;8.00;75.90;;;;;;5097070;28;20484;-78
2021/03/16 02:01:51;;;;;;;27.55;3.13;;;8.00;75.90;;;;;;5079053;28;20024;-78
2021/03/16 02:04:17;;;;;;;24.45;3.30;;;8.00;76.60;;;;;;5095672;28;20439;-78
2021/03/16 02:07:00;;;;;;;23.63;3.80;;;7.90;76.90;;;;;;5096814;28;20032;-78
2021/03/16 02:09:35;;;;;;;20.23;3.85;;;7.90;76.90;;;;;;5096657;28;20073;-78
2021/03/16 02:12:26;;;;;;;30.17;4.07;;;8.00;76.60;;;;;;5079477;28;20032;-78
2021/03/16 02:14:56;;;;;;;24.27;3.40;;;8.10;76.70;;;;;;5095807;28;20051;-78
2021/03/16 02:17:26;;;;;;;19.97;3.40;;;8.00;77.00;;;;;;5078373;28;20031;-79
2021/03/16 02:20:05;;;;;;;30.30;4.03;;;8.00;77.10;;;;;;5096481;28;20436;-78
2021/03/16 02:22:31;;;;;;;26.25;3.35;;;7.90;78.00;;;;;;5096473;28;20051;-78
2021/03/16 02:25:15;;;;;;;28.75;3.83;;;8.00;77.80;;;;;;5096376;28;20055;-78
2021/03/16 02:28:04;;;;;;;23.88;3.40;;;8.10;77.00;;;;;;5096244;28;20028;-78
2021/03/16 02:30:30;;;;;;;30.65;3.38;;;8.10;77.10;;;;;;5096346;28;20043;-78
2021/03/16 02:32:56;;;;;;;30.67;3.60;;;8.10;77.00;;;;;;5077894;28;20489;-78
2021/03/16 02:35:21;;;;;;;22.02;3.55;;;8.10;77.20;;;;;;5096048;28;20046;-78
2021/03/16 02:37:47;;;;;;;25.02;3.80;;;8.10;77.00;;;;;;5077815;28;20442;-78
2021/03/16 02:40:13;;;;;;;29.13;3.72;;;8.00;77.40;;;;;;5094891;28;20107;-78
2021/03/16 02:42:38;;;;;;;28.55;3.92;;;7.90;77.80;;;;;;5082345;28;20465;-78
2021/03/16 02:45:05;;;;;;;20.17;3.90;;;8.00;77.60;;;;;;5077757;28;20108;-78
2021/03/16 02:47:30;;;;;;;24.02;4.00;;;8.00;77.60;;;;;;5096049;28;20077;-78
2021/03/16 02:49:56;;;;;;;35.10;4.30;;;8.00;77.30;;;;;;5095842;28;20028;-78
2021/03/16 02:52:21;;;;;;;25.30;3.25;;;8.00;77.50;;;;;;5077783;28;20024;-78
2021/03/16 02:54:47;;;;;;;29.75;4.50;;;8.00;77.40;;;;;;5077640;28;20098;-78
2021/03/16 02:57:14;;;;;;;21.17;3.58;;;8.00;77.80;;;;;;5077566;28;20035;-78
2021/03/16 02:59:40;;;;;;;26.80;3.30;;;8.00;77.80;;;;;;5094191;28;20031;-78
2021/03/16 03:02:09;;;;;;;19.75;3.47;;;8.00;77.60;;;;;;5094430;28;20020;-78
2021/03/16 03:04:34;;;;;;;26.50;3.22;;;8.00;77.80;;;;;;5061081;28;20380;-78
2021/03/16 03:07:00;;;;;;;27.45;4.43;;;8.00;78.30;;;;;;5094414;28;20017;-78
2021/03/16 03:09:25;;;;;;;29.40;4.03;;;7.90;78.60;;;;;;5077406;28;20546;-78
2021/03/16 03:11:51;;;;;;;27.80;3.70;;;7.90;78.70;;;;;;5077095;28;20027;-79
2021/03/16 03:14:17;;;;;;;22.73;3.35;;;7.80;79.40;;;;;;5095294;28;20036;-77
2021/03/16 03:16:42;;;;;;;28.45;3.65;;;7.70;79.10;;;;;;5093835;28;20081;-77
2021/03/16 03:19:08;;;;;;;25.95;3.63;;;7.80;79.00;;;;;;5095249;28;20456;-78
2021/03/16 03:21:42;;;;;;;29.73;3.90;;;7.70;79.40;;;;;;5095135;28;20074;-78
2021/03/16 03:24:09;;;;;;;27.45;3.63;;;7.70;79.70;;;;;;5094044;28;20530;-78
2021/03/16 03:26:47;;;;;;;23.73;3.28;;;7.70;79.40;;;;;;5095053;28;20039;-79
2021/03/16 03:29:13;;;;;;;23.47;3.20;;;7.70;79.60;;;;;;5094017;28;20493;-77
2021/03/16 03:31:41;;;;;;;24.15;3.25;;;7.60;79.50;;;;;;5094735;28;20106;-78
2021/03/16 03:34:07;;;;;;;23.08;3.22;;;7.70;79.40;;;;;;5093423;28;20043;-78
2021/03/16 03:36:35;;;;;;;25.73;3.15;;;7.60;79.70;;;;;;5093806;28;20024;-78
2021/03/16 03:39:01;;;;;;;21.85;3.47;;;7.60;79.60;;;;;;5093580;28;20078;-78
2021/03/16 03:41:26;;;;;;;30.33;4.25;;;7.50;80.10;;;;;;5093692;28;20025;-78
2021/03/16 03:43:52;;;;;;;24.23;3.35;;;7.50;80.30;;;;;;5076744;28;20052;-78
2021/03/16 03:46:17;;;;;;;21.10;2.90;;;7.50;80.00;;;;;;5094416;28;20020;-78
2021/03/16 03:48:43;;;;;;;17.67;2.65;;;7.60;79.60;;;;;;5093703;28;20059;-78
2021/03/16 03:51:09;;;;;;;25.92;3.80;;;7.60;79.20;;;;;;5093532;28;20020;-78
2021/03/16 03:53:35;;;;;;;23.10;3.70;;;7.60;79.30;;;;;;5094690;28;20036;-78
2021/03/16 03:56:00;;;;;;;22.30;3.10;;;7.50;79.40;;;;;;5093610;28;20073;-78
2021/03/16 03:58:26;;;;;;;24.58;3.10;;;7.60;79.70;;;;;;5076561;28;20024;-78
2021/03/16 04:00:52;;;;;;;30.60;3.50;;;7.50;79.60;;;;;;5093411;28;20028;-78
2021/03/16 04:03:17;;;;;;;18.27;2.80;;;7.40;80.10;;;;;;5094337;28;20036;-78
2021/03/16 04:05:43;;;;;;;19.88;3.17;;;7.50;79.80;;;;;;5093402;28;20089;-78
2021/03/16 04:08:08;;;;;;;29.88;3.78;;;7.50;79.90;;;;;;5076337;28;20052;-77
2021/03/16 04:10:36;;;;;;;21.65;2.80;;;7.50;79.80;;;;;;5093197;28;20451;-78
2021/03/16 04:13:03;;;;;;;30.15;3.90;;;7.50;79.80;;;;;;5094341;28;20071;-78
2021/03/16 04:15:29;;;;;;;23.33;3.05;;;7.70;79.10;;;;;;5094110;28;20123;-78
2021/03/16 04:17:54;;;;;;;27.65;4.03;;;7.60;78.80;;;;;;5093392;28;20107;-78
2021/03/16 04:20:20;;;;;;;25.25;3.08;;;7.70;78.60;;;;;;5076373;28;20034;-78
2021/03/16 04:22:46;;;;;;;24.85;3.72;;;7.70;79.00;;;;;;5092683;28;20035;-78
2021/03/16 04:25:11;;;;;;;25.15;3.67;;;7.60;79.20;;;;;;5078709;28;20111;-78
2021/03/16 04:27:37;;;;;;;25.80;3.72;;;7.50;79.50;;;;;;5094200;28;20059;-78
2021/03/16 04:30:06;;;;;;;18.80;3.35;;;7.60;79.10;;;;;;5094120;28;20453;-78
2021/03/16 04:32:32;;;;;;;29.95;4.18;;;7.50;79.30;;;;;;5093418;28;20052;-78
2021/03/16 04:35:00;;;;;;;22.42;4.55;;;7.40;80.20;;;;;;5094011;28;20121;-78
2021/03/16 04:37:26;;;;;;;24.45;4.18;;;7.30;80.90;;;;;;5093887;28;20081;-79
2021/03/16 04:39:52;;;;;;;26.98;3.70;;;7.30;81.30;;;;;;5093883;28;20070;-77
2021/03/16 04:42:17;;;;;;;22.83;4.13;;;7.20;81.50;;;;;;5093272;28;20105;-77
2021/03/16 04:44:43;;;;;;;22.02;4.07;;;7.10;82.00;;;;;;5093833;28;20036;-77
2021/03/16 04:47:08;;;;;;;24.98;4.07;;;7.00;81.80;;;;;;5093818;28;20492;-77
2021/03/16 04:49:34;;;;;;;22.98;4.20;;;7.10;81.70;;;;;;5093753;28;20052;-77
2021/03/16 04:51:59;;;;;;;18.77;4.15;;;7.10;81.50;;;;;;5093968;28;20103;-77
2021/03/16 04:54:26;;;;;;;27.42;3.85;;;7.10;81.10;;;;;;5093667;28;20078;-77
2021/03/16 04:56:52;;;;;;;26.63;4.20;;;7.10;81.00;;;;;;5093714;28;20028;-77
2021/03/16 04:59:17;;;;;;;25.23;4.07;;;6.90;81.80;;;;;;5093717;28;20465;-77
2021/03/16 05:01:43;;;;;;;24.35;3.72;;;6.80;82.40;;;;;;5094256;28;20068;-77
2021/03/16 05:04:08;;;;;;;22.48;3.65;;;6.80;82.40;;;;;;5093940;28;20445;-77
2021/03/16 05:06:34;;;;;;;20.20;3.63;;;7.00;82.00;;;;;;5094054;28;20028;-77
2021/03/16 05:09:00;;;;;;;23.30;4.27;;;6.90;82.20;;;;;;5096565;28;20035;-77
2021/03/16 05:11:25;;;;;;;21.02;4.05;;;7.00;81.60;;;;;;5096783;28;20040;-78
2021/03/16 05:13:51;;;;;;;20.40;4.07;;;7.10;81.40;;;;;;5097661;28;20032;-78
2021/03/16 05:16:17;;;;;;;26.17;5.17;;;7.10;81.20;;;;;;5097296;28;20046;-78
2021/03/16 05:18:42;;;;;;;21.57;4.10;;;7.20;80.90;;;;;;5096528;28;20024;-78
2021/03/16 05:21:08;;;;;;;32.03;4.07;;;7.30;80.70;;;;;;5097500;28;20028;-77
2021/03/16 05:23:33;;;;;;;17.17;3.88;;;7.10;81.10;;;;;;5097201;28;20028;-77
2021/03/16 05:25:59;;;;;;;20.85;4.85;;;7.00;81.80;;;;;;5097439;28;20028;-77
2021/03/16 05:28:24;;;;;;;23.85;4.88;;;7.10;81.60;;;;;;5097646;28;20427;-77
2021/03/16 05:30:50;;;;;;;22.48;4.35;;;7.00;81.40;;;;;;5097300;28;20031;-79
2021/03/16 05:33:18;;;;;;;21.65;4.00;;;6.90;82.20;;;;;;5095935;28;20384;-77
2021/03/16 05:35:43;;;;;;;20.88;4.13;;;7.00;82.30;;;;;;5097161;28;20071;-79
2021/03/16 05:38:09;;;;;;;24.60;4.55;;;6.80;82.40;;;;;;5096481;28;20033;-78
2021/03/16 05:40:34;;;;;;;25.25;4.35;;;6.90;82.70;;;;;;5097158;28;20059;-78
2021/03/16 05:43:00;;;;;;;20.95;4.45;;;6.80;82.80;;;;;;5097103;28;20410;-77
2021/03/16 05:45:26;;;;;;;21.97;4.77;;;6.80;83.20;;;;;;5097075;28;20030;-77
2021/03/16 05:47:52;;;;;;;26.07;5.00;;;6.90;82.80;;;;;;5097182;28;20106;-77
2021/03/16 05:50:18;;;;;;;21.50;4.55;;;6.90;82.70;;;;;;5096996;28;20020;-77
2021/03/16 05:52:44;;;;;;;22.58;4.72;;;6.90;82.90;;;;;;5095443;28;20028;-77
2021/03/16 05:55:10;;;;;;;26.23;5.10;;;6.90;82.80;;;;;;5097601;28;20036;-78
2021/03/16 05:57:36;;;;;;;22.33;4.90;;;7.00;82.50;;;;;;5096557;28;20393;-77
2021/03/16 06:00:03;;;;;;;21.67;4.63;;;7.00;82.50;;;;;;5095253;28;20035;-78
2021/03/16 06:02:29;;;;;;;22.30;4.53;;;7.00;82.50;;;;;;5096653;28;20019;-78
2021/03/16 06:04:54;;;;;;;26.17;5.10;;;7.00;82.30;;;;;;5096653;28;20025;-77
2021/03/16 06:07:20;;;;;;;27.02;5.53;;;6.90;82.90;;;;;;5096489;28;20035;-77
2021/03/16 06:09:46;;;;;;;29.30;5.15;;;7.00;83.20;;;;;;5100191;28;20427;-80
2021/03/16 06:12:11;;;;;;;27.83;5.50;;;7.10;82.70;;;;;;5096629;28;20029;-79
2021/03/16 06:14:37;;;;;;;24.05;5.47;;;7.20;82.30;;;;;;5096455;28;20028;-77
2021/03/16 06:17:03;;;;;;;20.80;4.90;;;7.10;82.50;;;;;;5078367;28;20507;-77
2021/03/16 06:19:34;;;;;;;28.10;5.18;;;7.00;83.00;;;;;;5094343;28;20060;-77
2021/03/16 06:22:05;;;;;;;20.15;4.90;;;6.90;83.70;;;;;;5096448;28;20115;-78
2021/03/16 06:24:30;;;;;;;26.00;5.10;;;7.10;83.20;;;;;;5096420;28;20024;-79
2021/03/16 06:26:56;;;;;;;27.00;5.35;;;7.10;83.30;;;;;;5096307;28;20035;-79
2021/03/16 06:29:22;;;;;;;22.63;4.95;;;7.20;83.20;;;;;;5094924;28;20046;-81
2021/03/16 06:31:48;;;;;;;18.13;4.85;;;7.20;83.00;;;;;;5096079;28;20024;-79
2021/03/16 06:34:24;;;;;;;24.38;5.00;;;7.20;82.90;;;;;;5096089;28;20036;-79
2021/03/16 06:36:59;;;;;;;24.85;4.97;;;7.40;82.60;;;;;;5096055;28;20119;-79
2021/03/16 06:39:25;;;;;;;22.60;5.60;;;7.30;82.60;;;;;;5096258;28;20031;-77
2021/03/16 06:41:51;;;;;;;30.23;5.25;;;7.40;82.60;;;;;;5078007;28;20461;-79
2021/03/16 06:44:18;;;;;;;23.75;5.55;;;7.40;82.80;;;;;;5096448;28;20029;-77
2021/03/16 06:46:50;;;;;;;24.13;5.20;;;7.40;82.60;;;;;;5093262;28;20035;-77
2021/03/16 06:49:17;;;;;;;19.80;5.13;;;7.40;82.30;;;;;;5094961;28;20457;-77
2021/03/16 06:51:43;;;;;;;22.15;5.55;;;7.40;82.60;;;;;;5092128;28;20023;-77
2021/03/16 06:54:09;;;;;;;29.63;5.43;;;7.30;83.20;;;;;;5090719;28;20401;-81
2021/03/16 06:56:35;;;;;;;30.15;5.18;;;7.30;83.30;;;;;;5085755;28;20028;-83
2021/03/16 06:59:01;;;;;;;23.10;5.10;;;7.20;84.50;;;;;;5094456;28;20518;-77
2021/03/16 07:01:30;;;;;;;32.38;6.00;;;7.20;84.50;;;;;;5094586;28;20020;-77
2021/03/16 07:03:56;;;;;;;25.25;6.10;;;7.20;84.70;;;;;;5086490;28;20060;-78
2021/03/16 07:06:21;;;;;;;31.58;6.20;;;7.20;84.50;;;;;;5092309;28;20047;-78
2021/03/16 07:08:48;;;;;;;25.13;6.20;;;7.30;84.80;;;;;;5093769;28;20113;-79
2021/03/16 07:11:22;;;;;;;36.13;6.85;;;7.40;84.00;;;;;;5093780;28;20099;-77
2021/03/16 07:13:48;;;;;;;26.73;5.97;;;7.40;83.90;;;;;;5094410;28;20461;-76
2021/03/16 07:16:14;;;;;;;29.60;7.35;;;7.50;84.00;;;;;;5094843;28;20039;-76
